Time;durP1;ratioP1;P1;durP2;ratioP2;P2;SDS_P1;SDS_P2;PMS_P1;PMS_P2;Temp;Humidity;BMP_temperature;BMP_pressure;BME280_temperature;BME280_humidity;BME280_pressure;Samples;Min_cycle;Max_cycle;Signal;HPM_P1;HPM_P2
2021/07/28 00:01:54;;;;;;;5.67;5.27;;;24.70;91.10;;;;;;5101749;28;20522;-63
2021/07/28 00:04:21;;;;;;;6.77;6.27;;;24.60;91.20;;;;;;5111361;28;20452;-62
2021/07/28 00:06:48;;;;;;;6.80;6.30;;;24.60;91.30;;;;;;5111376;27;20479;-63
2021/07/28 00:09:15;;;;;;;6.97;6.37;;;24.60;91.40;;;;;;5120001;27;20844;-63
2021/07/28 00:11:42;;;;;;;7.73;6.93;;;24.60;91.50;;;;;;5115862;28;20528;-63
2021/07/28 00:14:09;;;;;;;6.57;6.00;;;24.50;91.50;;;;;;5104400;28;20468;-62
2021/07/28 00:16:36;;;;;;;7.00;6.50;;;24.50;91.60;;;;;;5111627;28;21017;-63
2021/07/28 00:19:09;;;;;;;8.90;7.23;;;24.50;91.70;;;;;;5114320;28;20553;-63
2021/07/28 00:30:03;;;;;;;7.10;6.50;;;24.40;92.00;;;;;;5114837;27;20487;-62
2021/07/28 00:35:15;;;;;;;5.90;5.50;;;24.30;92.10;;;;;;5121258;27;20544;-62
2021/07/28 00:37:44;;;;;;;6.93;6.23;;;24.30;92.20;;;;;;5115421;27;20461;-62
2021/07/28 00:40:13;;;;;;;6.10;5.70;;;24.30;92.30;;;;;;5110444;28;20866;-63
2021/07/28 00:42:40;;;;;;;6.30;5.80;;;24.30;92.40;;;;;;5109780;27;20456;-63
2021/07/28 00:45:07;;;;;;;5.73;5.27;;;24.30;92.60;;;;;;5112885;28;20856;-61
2021/07/28 00:47:35;;;;;;;6.07;5.57;;;24.30;92.60;;;;;;5113542;28;20472;-62
2021/07/28 00:50:02;;;;;;;6.03;5.53;;;24.20;92.70;;;;;;5113738;28;20464;-62
2021/07/28 00:52:32;;;;;;;6.10;5.60;;;24.20;92.80;;;;;;5104511;27;20505;-62
2021/07/28 00:54:59;;;;;;;6.07;5.57;;;24.20;92.90;;;;;;5100481;28;20494;-61
2021/07/28 00:57:26;;;;;;;7.30;6.70;;;24.10;92.90;;;;;;5108404;27;20853;-61
2021/07/28 00:59:53;;;;;;;6.27;5.80;;;24.10;93.10;;;;;;5100218;27;20524;-62
2021/07/28 01:02:20;;;;;;;5.57;5.17;;;24.10;93.20;;;;;;5102880;27;20461;-62
2021/07/28 01:04:47;;;;;;;6.63;6.03;;;24.00;93.20;;;;;;5112496;28;20464;-62
2021/07/28 01:07:14;;;;;;;6.07;5.67;;;24.00;93.30;;;;;;5114854;28;20805;-63
2021/07/28 01:09:42;;;;;;;5.50;5.10;;;24.00;93.50;;;;;;5110682;28;20953;-62
2021/07/28 01:12:09;;;;;;;6.60;6.00;;;24.00;93.50;;;;;;5113496;28;20859;-62
2021/07/28 01:14:36;;;;;;;6.07;5.67;;;23.90;93.50;;;;;;5108017;28;20461;-62
2021/07/28 01:17:04;;;;;;;7.00;6.30;;;23.90;93.50;;;;;;5102150;28;20465;-61
2021/07/28 01:19:39;;;;;;;6.97;6.37;;;23.90;93.70;;;;;;5110772;27;20477;-62
2021/07/28 01:22:07;;;;;;;7.00;6.43;;;23.80;93.80;;;;;;5105758;27;20472;-62
2021/07/28 01:24:36;;;;;;;5.10;4.70;;;23.80;93.80;;;;;;5114781;27;20464;-64
2021/07/28 01:27:04;;;;;;;6.23;5.80;;;23.80;94.00;;;;;;5105658;28;20526;-63
2021/07/28 01:29:32;;;;;;;5.30;4.90;;;23.80;94.10;;;;;;5103113;27;20477;-62
2021/07/28 01:31:59;;;;;;;6.13;5.63;;;23.80;94.30;;;;;;5117030;27;20495;-63
2021/07/28 01:34:26;;;;;;;6.10;5.63;;;23.70;94.30;;;;;;5114829;27;20476;-62
2021/07/28 01:36:56;;;;;;;6.03;5.63;;;23.70;94.40;;;;;;5114889;27;20988;-63
2021/07/28 01:39:23;;;;;;;7.07;5.40;;;23.70;94.50;;;;;;5122153;27;20467;-63
2021/07/28 01:41:59;;;;;;;6.20;5.60;;;23.70;95.00;;;;;;5118584;27;20518;-63
2021/07/28 01:44:26;;;;;;;6.07;5.60;;;23.60;94.70;;;;;;5119177;27;20472;-63
2021/07/28 01:46:53;;;;;;;6.90;6.30;;;23.60;94.70;;;;;;5127359;27;20473;-63
2021/07/28 01:49:20;;;;;;;6.23;5.73;;;23.60;94.80;;;;;;5120421;27;20472;-64
2021/07/28 01:51:47;;;;;;;6.90;6.40;;;23.60;94.90;;;;;;5107093;28;20989;-63
2021/07/28 01:54:14;;;;;;;6.87;6.30;;;23.60;94.90;;;;;;5095602;28;20462;-63
2021/07/28 01:56:43;;;;;;;6.47;5.87;;;23.50;95.00;;;;;;5113800;27;20460;-63
2021/07/28 01:59:14;;;;;;;5.30;4.90;;;23.50;95.00;;;;;;5113069;27;20568;-63
2021/07/28 02:01:41;;;;;;;6.20;5.70;;;23.50;95.10;;;;;;5112019;27;20541;-63
2021/07/28 02:04:08;;;;;;;6.17;5.67;;;23.50;95.10;;;;;;5113202;27;20472;-63
2021/07/28 02:06:35;;;;;;;5.97;5.40;;;23.50;95.10;;;;;;5119321;27;20902;-63
2021/07/28 02:09:02;;;;;;;6.00;5.50;;;23.40;95.10;;;;;;5133030;27;20460;-63
2021/07/28 02:11:29;;;;;;;6.03;5.43;;;23.40;95.10;;;;;;5132751;27;20524;-63
2021/07/28 02:13:56;;;;;;;5.90;5.50;;;23.40;95.10;;;;;;5131342;27;20520;-63
2021/07/28 02:16:24;;;;;;;6.50;5.90;;;23.40;95.10;;;;;;5130803;27;20512;-63
2021/07/28 02:18:51;;;;;;;6.00;5.50;;;23.40;95.20;;;;;;5131631;27;20864;-63
2021/07/28 02:21:18;;;;;;;5.83;5.43;;;23.40;95.20;;;;;;5131443;27;20455;-63
2021/07/28 02:23:45;;;;;;;5.73;5.23;;;23.40;95.20;;;;;;5131342;27;20958;-63
2021/07/28 02:26:12;;;;;;;7.23;6.63;;;23.30;95.30;;;;;;5133984;27;20464;-63
2021/07/28 02:28:39;;;;;;;5.83;5.43;;;23.30;95.50;;;;;;5134458;27;20476;-63
2021/07/28 02:31:06;;;;;;;8.07;5.93;;;23.30;95.40;;;;;;5134998;27;20988;-63
2021/07/28 02:33:34;;;;;;;7.90;5.30;;;23.30;95.40;;;;;;5133497;27;20513;-64
2021/07/28 02:36:01;;;;;;;5.93;4.87;;;23.30;95.50;;;;;;5134273;27;20467;-63
2021/07/28 02:38:28;;;;;;;5.90;5.50;;;23.30;95.50;;;;;;5134402;27;20471;-63
2021/07/28 02:40:54;;;;;;;6.40;5.80;;;23.30;95.50;;;;;;5134799;27;21088;-63
2021/07/28 02:43:21;;;;;;;6.17;5.67;;;23.20;95.50;;;;;;5134595;27;20536;-63
2021/07/28 02:45:48;;;;;;;6.80;6.30;;;23.30;95.60;;;;;;5134307;27;20460;-63
2021/07/28 02:48:15;;;;;;;6.10;5.60;;;23.20;95.60;;;;;;5134530;27;20528;-63
2021/07/28 02:50:43;;;;;;;6.90;6.30;;;23.20;95.60;;;;;;5134170;27;20464;-63
2021/07/28 02:53:10;;;;;;;5.90;5.50;;;23.20;95.70;;;;;;5134489;27;20521;-63
2021/07/28 02:55:37;;;;;;;5.77;5.37;;;23.20;95.70;;;;;;5134131;27;20768;-63
2021/07/28 02:58:04;;;;;;;6.23;5.73;;;23.20;95.80;;;;;;5134211;27;20532;-63
2021/07/28 03:00:31;;;;;;;5.63;5.13;;;23.20;95.80;;;;;;5134071;27;20984;-63
2021/07/28 03:02:58;;;;;;;6.00;5.60;;;23.10;95.70;;;;;;5134300;27;20463;-63
2021/07/28 03:05:25;;;;;;;6.30;5.80;;;23.20;95.80;;;;;;5134398;27;20475;-63
2021/07/28 03:07:53;;;;;;;7.57;5.90;;;23.10;95.80;;;;;;5133972;27;20548;-63
2021/07/28 03:10:20;;;;;;;6.37;5.87;;;23.10;95.90;;;;;;5133917;27;20468;-63
2021/07/28 03:12:47;;;;;;;5.90;5.43;;;23.10;95.90;;;;;;5133555;27;20855;-63
2021/07/28 03:15:13;;;;;;;6.20;5.60;;;23.10;95.90;;;;;;5134141;27;20516;-63
2021/07/28 03:17:40;;;;;;;6.57;5.97;;;23.10;95.80;;;;;;5133557;27;20536;-62
2021/07/28 03:20:08;;;;;;;5.93;5.53;;;23.10;95.90;;;;;;5134328;27;20988;-63
2021/07/28 03:22:35;;;;;;;6.43;5.93;;;23.10;95.90;;;;;;5133475;27;20518;-63
2021/07/28 03:25:04;;;;;;;6.43;5.93;;;23.10;96.30;;;;;;5133881;27;20516;-63
2021/07/28 03:27:31;;;;;;;7.03;6.43;;;23.10;95.80;;;;;;5133648;27;20851;-63
2021/07/28 03:29:58;;;;;;;6.43;5.90;;;23.10;95.90;;;;;;5134075;27;20471;-63
2021/07/28 03:32:25;;;;;;;6.30;5.80;;;23.10;95.90;;;;;;5133855;27;20520;-63
2021/07/28 03:34:52;;;;;;;6.73;6.23;;;23.10;96.00;;;;;;5133488;27;20455;-63
2021/07/28 03:37:19;;;;;;;6.20;5.70;;;23.10;96.20;;;;;;5133771;27;20475;-63
2021/07/28 03:39:46;;;;;;;7.37;6.73;;;23.10;96.30;;;;;;5133210;27;20520;-64
2021/07/28 03:42:14;;;;;;;6.70;6.20;;;23.10;96.50;;;;;;5134065;27;21019;-63
2021/07/28 03:44:41;;;;;;;6.00;5.50;;;23.10;96.60;;;;;;5133450;27;20472;-63
2021/07/28 03:47:08;;;;;;;6.80;6.30;;;23.10;96.70;;;;;;5133559;27;20482;-63
2021/07/28 03:49:35;;;;;;;6.50;6.00;;;23.10;96.70;;;;;;5133418;27;20555;-64
2021/07/28 03:52:01;;;;;;;5.47;5.07;;;23.10;96.70;;;;;;5133511;27;20459;-63
2021/07/28 03:54:28;;;;;;;6.23;5.63;;;23.10;96.90;;;;;;5133673;27;20594;-63
2021/07/28 03:56:55;;;;;;;5.87;5.37;;;23.10;96.90;;;;;;5133575;27;20531;-63
2021/07/28 03:59:23;;;;;;;5.67;5.07;;;23.00;96.80;;;;;;5133598;27;20846;-63
2021/07/28 04:01:50;;;;;;;6.60;5.90;;;23.00;96.90;;;;;;5133347;27;20467;-63
2021/07/28 04:04:17;;;;;;;6.37;5.80;;;23.00;96.90;;;;;;5133358;27;20475;-63
2021/07/28 04:06:44;;;;;;;5.93;5.50;;;23.00;97.00;;;;;;5133213;27;20528;-64
2021/07/28 04:09:11;;;;;;;5.90;5.30;;;23.00;97.00;;;;;;5133644;27;20476;-63
2021/07/28 04:11:38;;;;;;;5.70;5.20;;;23.00;97.10;;;;;;5133125;27;20464;-63
2021/07/28 04:14:05;;;;;;;6.37;5.87;;;23.00;97.10;;;;;;5133406;27;20472;-63
2021/07/28 04:16:33;;;;;;;6.80;6.30;;;23.00;97.10;;;;;;5133639;27;20464;-63
2021/07/28 04:19:00;;;;;;;6.27;5.83;;;23.00;97.20;;;;;;5133294;27;20459;-62
2021/07/28 04:21:27;;;;;;;5.57;5.17;;;23.00;97.30;;;;;;5133542;27;20543;-62
2021/07/28 04:23:54;;;;;;;6.53;6.03;;;23.00;97.30;;;;;;5132997;27;20459;-62
2021/07/28 04:26:20;;;;;;;5.60;5.20;;;23.00;97.30;;;;;;5133255;27;20464;-62
2021/07/28 04:28:47;;;;;;;6.00;5.47;;;23.00;97.50;;;;;;5132807;27;20964;-62
2021/07/28 04:31:14;;;;;;;5.63;5.10;;;23.10;97.70;;;;;;5133477;27;20455;-62
2021/07/28 04:33:42;;;;;;;6.57;5.80;;;23.10;97.80;;;;;;5132787;27;21123;-62
2021/07/28 04:36:09;;;;;;;6.00;5.47;;;23.00;97.90;;;;;;5133465;27;20471;-62
2021/07/28 04:38:36;;;;;;;5.63;5.23;;;23.00;98.10;;;;;;5132565;27;20532;-62
2021/07/28 04:41:03;;;;;;;6.07;5.47;;;23.00;98.10;;;;;;5133204;27;20463;-62
2021/07/28 04:43:30;;;;;;;11.33;7.80;;;22.90;98.00;;;;;;5133413;27;20881;-62
2021/07/28 04:45:59;;;;;;;7.80;7.10;;;22.90;98.00;;;;;;5133347;27;20464;-63
2021/07/28 04:48:26;;;;;;;7.10;6.40;;;22.90;98.20;;;;;;5136803;27;20551;-63
2021/07/28 04:50:55;;;;;;;6.20;5.60;;;22.90;98.30;;;;;;5136579;27;20524;-63
2021/07/28 04:53:22;;;;;;;6.17;5.57;;;22.90;98.30;;;;;;5136807;27;20471;-62
2021/07/28 04:55:52;;;;;;;6.00;5.50;;;22.90;98.30;;;;;;5136398;27;20516;-63
2021/07/28 04:58:19;;;;;;;5.50;5.10;;;22.90;98.30;;;;;;5136851;27;20566;-63
2021/07/28 05:00:46;;;;;;;6.67;6.17;;;22.90;98.30;;;;;;5136312;27;20470;-63
2021/07/28 05:03:14;;;;;;;5.53;5.10;;;22.90;98.40;;;;;;5136582;27;20519;-63
2021/07/28 05:05:40;;;;;;;5.30;4.90;;;22.80;98.20;;;;;;5136375;27;20538;-63
2021/07/28 05:08:09;;;;;;;6.60;6.00;;;22.90;98.60;;;;;;5136338;27;20471;-62
2021/07/28 05:10:36;;;;;;;6.07;5.67;;;22.90;98.10;;;;;;5136464;27;20558;-63
2021/07/28 05:13:04;;;;;;;7.17;5.50;;;22.90;98.00;;;;;;5136062;27;20466;-63
2021/07/28 05:15:31;;;;;;;6.43;5.93;;;22.90;97.90;;;;;;5136467;27;20543;-63
2021/07/28 05:17:58;;;;;;;5.33;4.93;;;22.90;98.00;;;;;;5136055;27;20472;-63
2021/07/28 05:20:25;;;;;;;5.23;4.73;;;22.90;97.90;;;;;;5136436;27;20467;-63
2021/07/28 05:22:52;;;;;;;5.27;4.87;;;22.90;98.30;;;;;;5135833;27;20485;-63
2021/07/28 05:25:20;;;;;;;6.77;6.17;;;23.00;98.00;;;;;;5136240;27;20555;-63
2021/07/28 05:27:47;;;;;;;6.37;5.97;;;23.00;97.90;;;;;;5135753;27;20467;-63
2021/07/28 05:30:15;;;;;;;6.37;5.80;;;23.00;97.90;;;;;;5136126;27;20474;-64
2021/07/28 05:32:42;;;;;;;6.80;5.97;;;23.00;97.90;;;;;;5135582;27;20538;-63
2021/07/28 05:35:10;;;;;;;5.43;4.93;;;23.00;98.00;;;;;;5136087;27;21113;-63
2021/07/28 05:37:37;;;;;;;6.10;5.53;;;23.00;98.20;;;;;;5135910;27;20540;-62
2021/07/28 05:40:04;;;;;;;6.20;5.70;;;23.10;98.40;;;;;;5135519;27;20459;-64
2021/07/28 05:42:33;;;;;;;6.50;6.00;;;23.10;98.70;;;;;;5136193;27;20568;-62
2021/07/28 05:45:00;;;;;;;5.57;5.07;;;23.10;99.00;;;;;;5135491;27;20869;-62
2021/07/28 05:47:27;;;;;;;6.07;4.87;;;23.00;98.90;;;;;;5135621;27;20467;-63
2021/07/28 05:49:54;;;;;;;5.10;4.70;;;23.00;98.80;;;;;;5135680;27;20467;-62
2021/07/28 05:52:21;;;;;;;5.57;5.07;;;23.00;98.80;;;;;;5135596;27;20474;-61
2021/07/28 05:54:48;;;;;;;5.57;5.13;;;23.00;98.90;;;;;;5135246;27;20460;-63
2021/07/28 05:57:18;;;;;;;5.70;5.17;;;23.00;98.80;;;;;;5134997;27;20539;-63
2021/07/28 06:02:29;;;;;;;4.83;4.43;;;23.10;98.60;;;;;;5135398;27;20508;-63
2021/07/28 06:04:56;;;;;;;4.90;4.50;;;23.00;98.60;;;;;;5135350;27;20771;-63
2021/07/28 06:07:23;;;;;;;4.93;4.63;;;23.10;98.60;;;;;;5135243;27;20474;-63
2021/07/28 06:09:50;;;;;;;5.60;4.80;;;23.10;98.20;;;;;;5135027;27;20964;-63
2021/07/28 06:12:18;;;;;;;5.20;4.83;;;23.10;97.90;;;;;;5135477;27;20463;-63
2021/07/28 06:14:47;;;;;;;5.53;4.73;;;23.10;97.60;;;;;;5134950;27;20496;-61
2021/07/28 06:17:14;;;;;;;4.80;4.50;;;23.20;96.40;;;;;;5135288;27;20489;-62
2021/07/28 06:19:43;;;;;;;4.60;4.30;;;23.20;96.30;;;;;;5135239;27;20554;-62
2021/07/28 06:22:10;;;;;;;5.63;4.87;;;23.30;96.30;;;;;;5134847;27;20845;-62
2021/07/28 06:24:37;;;;;;;5.20;4.80;;;23.30;96.00;;;;;;5135074;27;20543;-62
2021/07/28 06:27:04;;;;;;;5.07;4.57;;;23.40;96.40;;;;;;5134848;27;20460;-62
2021/07/28 06:29:31;;;;;;;5.00;4.60;;;23.40;95.70;;;;;;5134995;27;20503;-62
2021/07/28 06:32:00;;;;;;;4.83;4.33;;;23.40;95.50;;;;;;5134509;27;20846;-62
2021/07/28 06:34:27;;;;;;;5.43;5.00;;;23.50;94.70;;;;;;5134832;27;20540;-63
2021/07/28 06:36:53;;;;;;;4.47;4.13;;;23.50;94.50;;;;;;5134337;27;20520;-63
2021/07/28 06:39:20;;;;;;;5.10;4.60;;;23.50;94.50;;;;;;5134834;27;20456;-62
2021/07/28 06:41:47;;;;;;;4.60;4.20;;;23.50;94.50;;;;;;5134427;27;20464;-64
2021/07/28 06:44:14;;;;;;;4.50;4.10;;;23.50;94.50;;;;;;5134670;27;20508;-63
2021/07/28 06:46:41;;;;;;;4.40;4.10;;;23.50;94.40;;;;;;5134261;27;20533;-62
2021/07/28 06:49:09;;;;;;;3.90;3.60;;;23.50;94.30;;;;;;5133404;27;20464;-62
2021/07/28 06:51:40;;;;;;;4.70;4.40;;;23.50;94.50;;;;;;5133881;27;20505;-62
2021/07/28 06:54:07;;;;;;;4.90;4.50;;;23.50;94.40;;;;;;5133017;27;20471;-62
2021/07/28 06:56:34;;;;;;;4.27;3.87;;;23.60;94.50;;;;;;5133675;27;20467;-63
2021/07/28 06:59:00;;;;;;;5.90;4.10;;;23.60;94.20;;;;;;5133083;27;20540;-63
2021/07/28 07:01:27;;;;;;;5.07;4.67;;;23.60;94.10;;;;;;5133711;27;20957;-63
2021/07/28 07:03:54;;;;;;;5.43;4.20;;;23.60;94.20;;;;;;5133066;27;20471;-62
2021/07/28 07:06:22;;;;;;;5.90;5.10;;;23.60;94.30;;;;;;5133464;27;20455;-62
2021/07/28 07:08:49;;;;;;;5.03;4.50;;;23.60;94.20;;;;;;5132675;27;20460;-62
2021/07/28 07:11:16;;;;;;;5.10;4.70;;;23.60;94.10;;;;;;5133511;27;20843;-63
2021/07/28 07:13:43;;;;;;;6.23;5.63;;;23.60;94.00;;;;;;5133336;27;20524;-62
2021/07/28 07:16:10;;;;;;;5.40;4.90;;;23.70;94.10;;;;;;5132991;27;20459;-62
2021/07/28 07:18:37;;;;;;;6.17;5.57;;;23.70;94.10;;;;;;5133229;27;21037;-63
2021/07/28 07:21:04;;;;;;;5.70;5.20;;;23.70;94.30;;;;;;5132826;27;20456;-62
2021/07/28 07:23:32;;;;;;;5.90;5.40;;;23.70;94.60;;;;;;5133462;27;20846;-63
2021/07/28 07:25:59;;;;;;;6.80;6.27;;;23.60;94.80;;;;;;5132853;27;20467;-63
2021/07/28 07:28:26;;;;;;;6.77;6.17;;;23.60;95.00;;;;;;5133157;27;20543;-63
2021/07/28 07:30:53;;;;;;;6.53;5.60;;;23.60;95.20;;;;;;5132721;27;20559;-62
2021/07/28 07:33:39;;;;;;;6.00;5.53;;;23.70;95.30;;;;;;5132826;27;20603;-62
2021/07/28 07:36:06;;;;;;;5.90;5.40;;;23.70;95.40;;;;;;5132623;27;20862;-62
2021/07/28 07:38:35;;;;;;;5.73;5.23;;;23.80;95.50;;;;;;5132878;27;20467;-63
2021/07/28 07:41:02;;;;;;;6.30;5.53;;;23.80;95.60;;;;;;5132690;27;20520;-62
2021/07/28 07:43:29;;;;;;;5.57;5.07;;;23.80;95.30;;;;;;5133233;27;20521;-63
2021/07/28 07:45:56;;;;;;;5.73;5.23;;;23.90;95.10;;;;;;5087043;27;1282911;-62
2021/07/28 07:48:23;;;;;;;10.07;5.47;;;24.00;95.00;;;;;;5133850;27;20617;-63
2021/07/28 07:50:51;;;;;;;5.40;5.00;;;24.10;95.00;;;;;;5133577;27;20969;-62
2021/07/28 07:53:18;;;;;;;4.57;4.17;;;24.30;94.70;;;;;;5133451;27;21283;-62
2021/07/28 07:55:46;;;;;;;5.20;4.83;;;24.60;94.40;;;;;;5133580;27;20459;-63
2021/07/28 07:58:13;;;;;;;5.43;5.03;;;24.70;94.30;;;;;;5133066;27;20803;-63
2021/07/28 08:00:40;;;;;;;4.90;4.50;;;25.00;93.70;;;;;;5133699;27;20519;-63
2021/07/28 08:03:07;;;;;;;5.10;4.77;;;25.10;93.70;;;;;;5133225;27;20471;-63
2021/07/28 08:05:34;;;;;;;5.87;5.37;;;25.20;93.50;;;;;;5133496;27;20452;-63
2021/07/28 08:08:01;;;;;;;7.17;5.70;;;25.40;93.30;;;;;;5133029;27;20847;-62
2021/07/28 08:10:28;;;;;;;5.30;4.80;;;25.40;93.30;;;;;;5133694;27;20463;-63
2021/07/28 08:12:56;;;;;;;6.57;5.97;;;25.50;93.30;;;;;;5133001;27;21018;-62
2021/07/28 08:15:23;;;;;;;5.27;4.87;;;25.50;93.30;;;;;;5133527;27;20844;-63
2021/07/28 08:17:51;;;;;;;6.60;6.00;;;25.60;93.40;;;;;;5133411;27;20957;-62
2021/07/28 08:20:18;;;;;;;6.20;5.60;;;25.60;93.40;;;;;;5132868;27;20851;-62
2021/07/28 08:22:44;;;;;;;6.60;6.07;;;25.70;93.40;;;;;;5137283;27;20463;-63
2021/07/28 08:25:12;;;;;;;5.30;4.90;;;25.80;93.10;;;;;;5137013;27;20459;-62
2021/07/28 08:27:39;;;;;;;5.80;5.40;;;25.80;92.90;;;;;;5137427;27;20463;-63
2021/07/28 08:30:09;;;;;;;4.80;4.47;;;25.90;92.90;;;;;;5136918;27;20539;-63
2021/07/28 08:32:36;;;;;;;5.63;5.17;;;25.90;92.90;;;;;;5137288;27;20492;-63
2021/07/28 08:35:04;;;;;;;5.10;4.80;;;26.00;92.90;;;;;;5136616;27;20605;-61
2021/07/28 08:37:30;;;;;;;5.30;4.90;;;26.00;92.90;;;;;;5137073;27;20460;-63
2021/07/28 08:39:57;;;;;;;5.97;5.47;;;26.10;92.80;;;;;;5136725;27;21029;-62
2021/07/28 08:42:27;;;;;;;6.40;5.80;;;26.20;92.80;;;;;;5137192;27;20543;-62
2021/07/28 08:44:54;;;;;;;5.47;4.90;;;26.20;92.60;;;;;;5137194;27;20494;-63
2021/07/28 08:47:23;;;;;;;5.17;4.70;;;26.20;92.70;;;;;;5136547;27;20937;-63
2021/07/28 08:49:52;;;;;;;5.27;4.87;;;26.20;92.80;;;;;;5136877;27;20519;-62
2021/07/28 08:52:20;;;;;;;6.00;4.93;;;26.20;92.90;;;;;;5136375;27;20941;-63
2021/07/28 08:54:47;;;;;;;5.90;5.30;;;26.30;93.00;;;;;;5136789;27;20471;-63
2021/07/28 08:57:15;;;;;;;7.00;5.17;;;26.30;93.00;;;;;;5136627;27;20828;-62
2021/07/28 08:59:42;;;;;;;5.90;5.37;;;26.30;93.10;;;;;;5136858;27;20814;-62
2021/07/28 09:02:08;;;;;;;5.70;5.10;;;26.30;92.90;;;;;;5136134;27;20463;-62
2021/07/28 09:04:37;;;;;;;6.63;6.13;;;26.30;93.10;;;;;;5136874;27;20468;-62
2021/07/28 09:07:14;;;;;;;5.87;5.37;;;26.30;93.20;;;;;;5136136;27;20491;-62
2021/07/28 09:09:52;;;;;;;6.27;5.67;;;26.30;93.30;;;;;;5136617;27;20487;-64
2021/07/28 09:12:19;;;;;;;6.07;5.60;;;26.30;93.20;;;;;;5135965;27;20912;-62
2021/07/28 09:14:55;;;;;;;5.97;5.57;;;26.30;93.40;;;;;;5136463;27;20463;-62
2021/07/28 09:17:26;;;;;;;5.80;5.30;;;26.30;93.60;;;;;;5136260;27;20455;-62
2021/07/28 09:19:56;;;;;;;4.60;4.30;;;26.30;93.50;;;;;;5136304;27;20463;-61
2021/07/28 09:22:25;;;;;;;5.30;4.90;;;26.30;92.90;;;;;;5135874;27;20474;-63
2021/07/28 09:25:15;;;;;;;4.57;4.17;;;26.30;92.70;;;;;;5136352;27;20471;-63
2021/07/28 09:27:45;;;;;;;5.57;5.17;;;26.30;92.50;;;;;;5136163;27;20929;-63
2021/07/28 09:30:16;;;;;;;5.10;4.50;;;26.30;92.60;;;;;;5135151;27;20524;-63
2021/07/28 09:33:00;;;;;;;4.63;4.33;;;26.30;92.70;;;;;;5135514;27;20463;-61
2021/07/28 09:36:09;;;;;;;5.83;4.90;;;26.30;92.60;;;;;;5136032;27;20479;-62
2021/07/28 09:38:42;;;;;;;4.33;3.93;;;26.20;92.50;;;;;;5135920;27;20490;-61
2021/07/28 09:41:17;;;;;;;4.40;4.10;;;26.30;92.00;;;;;;5135273;27;20905;-63
2021/07/28 09:43:49;;;;;;;5.63;4.30;;;26.30;91.90;;;;;;5134635;27;20515;-62
2021/07/28 09:46:28;;;;;;;5.90;5.50;;;26.20;91.90;;;;;;5134958;27;20532;-63
2021/07/28 09:48:55;;;;;;;5.53;5.13;;;26.30;91.70;;;;;;5134676;27;20455;-63
2021/07/28 09:51:25;;;;;;;5.33;4.93;;;26.30;91.80;;;;;;5134866;27;20957;-62
2021/07/28 09:53:58;;;;;;;4.90;4.53;;;26.30;91.90;;;;;;5134235;27;20481;-62
2021/07/28 09:56:41;;;;;;;4.90;4.50;;;26.30;91.90;;;;;;5135476;27;20543;-62
2021/07/28 09:59:08;;;;;;;4.43;4.13;;;26.40;92.10;;;;;;5134340;27;20550;-63
2021/07/28 10:01:35;;;;;;;4.60;4.20;;;26.40;92.00;;;;;;5134970;27;20512;-63
2021/07/28 10:04:05;;;;;;;4.50;4.10;;;26.30;91.30;;;;;;5135629;27;20460;-63
2021/07/28 10:06:39;;;;;;;4.07;3.73;;;26.40;90.60;;;;;;5135251;27;20459;-63
2021/07/28 10:09:26;;;;;;;;;;;;;;;;;;;;;
2021/07/28 10:11:57;;;;;;;3.50;3.23;;;26.40;89.60;;;;;;5129787;27;20460;-62
2021/07/28 10:14:24;;;;;;;4.47;4.17;;;26.40;89.50;;;;;;5135305;27;20456;-62
2021/07/28 10:16:53;;;;;;;4.90;3.90;;;26.30;89.10;;;;;;5135286;27;20468;-61
2021/07/28 10:19:21;;;;;;;4.00;3.60;;;26.30;89.00;;;;;;5134937;27;20508;-63
2021/07/28 10:21:50;;;;;;;4.57;4.27;;;26.40;88.50;;;;;;5135286;27;20459;-62
2021/07/28 10:24:18;;;;;;;4.30;3.90;;;26.40;88.00;;;;;;5134557;27;20512;-62
2021/07/28 10:26:48;;;;;;;18.93;7.40;;;26.40;87.00;;;;;;5134939;27;20464;-62
2021/07/28 10:29:16;;;;;;;12.93;6.37;;;26.30;86.20;;;;;;5114476;27;20541;-64
2021/07/28 10:31:48;;;;;;;14.33;7.00;;;26.30;86.20;;;;;;5100432;28;20453;-63
2021/07/28 10:34:26;;;;;;;27.10;11.33;;;26.30;85.10;;;;;;5113833;27;21072;-63
2021/07/28 10:36:55;;;;;;;43.03;15.63;;;26.40;83.90;;;;;;5114051;28;20472;-63
2021/07/28 10:39:37;;;;;;;12.63;6.87;;;26.40;83.60;;;;;;5113819;28;21583;-63
2021/07/28 10:42:04;;;;;;;10.20;6.07;;;26.50;83.40;;;;;;5100399;28;20465;-63
2021/07/28 10:44:32;;;;;;;7.53;4.83;;;26.50;83.60;;;;;;5113064;28;20529;-63
2021/07/28 10:47:39;;;;;;;4.23;3.83;;;26.60;83.90;;;;;;5111523;27;20491;-63
2021/07/28 10:50:08;;;;;;;4.87;4.43;;;26.60;83.90;;;;;;5107359;28;20510;-62
2021/07/28 10:52:45;;;;;;;4.83;4.43;;;26.70;83.20;;;;;;5107075;28;20456;-61
2021/07/28 10:55:18;;;;;;;5.00;4.60;;;26.80;83.00;;;;;;5101012;28;20464;-63
2021/07/28 10:58:21;;;;;;;4.80;4.40;;;26.80;83.00;;;;;;5111343;28;20539;-63
2021/07/28 11:00:50;;;;;;;4.93;4.53;;;26.90;83.00;;;;;;5106802;28;20890;-62
2021/07/28 11:03:18;;;;;;;5.03;4.70;;;26.90;82.70;;;;;;5105392;28;20460;-63
2021/07/28 11:05:48;;;;;;;4.40;4.10;;;27.00;83.00;;;;;;5111752;28;20535;-63
2021/07/28 11:08:18;;;;;;;4.20;3.90;;;27.00;83.60;;;;;;5102024;28;20469;-63
2021/07/28 11:10:54;;;;;;;5.60;5.20;;;27.00;84.00;;;;;;5099281;28;20472;-62
2021/07/28 11:13:22;;;;;;;5.93;5.43;;;27.10;84.50;;;;;;5102875;28;20870;-62
2021/07/28 11:15:57;;;;;;;6.50;5.20;;;27.10;83.50;;;;;;5106066;28;20469;-62
2021/07/28 11:18:34;;;;;;;5.53;5.00;;;27.10;83.80;;;;;;5105391;28;20472;-63
2021/07/28 11:21:09;;;;;;;5.40;4.90;;;27.20;83.40;;;;;;5112950;28;20478;-63
2021/07/28 11:23:42;;;;;;;5.37;4.97;;;27.20;83.60;;;;;;5099588;28;20773;-62
2021/07/28 11:26:22;;;;;;;4.57;4.27;;;27.20;83.40;;;;;;5103982;28;21306;-63
2021/07/28 11:28:51;;;;;;;5.30;4.80;;;27.20;84.10;;;;;;5101518;28;20975;-63
2021/07/28 11:31:28;;;;;;;5.93;5.43;;;27.20;83.70;;;;;;5113242;28;20481;-63
2021/07/28 11:34:19;;;;;;;7.17;6.10;;;27.30;83.60;;;;;;5099178;27;20537;-63
2021/07/28 11:36:55;;;;;;;12.40;7.30;;;27.30;82.40;;;;;;5106554;27;20476;-62
2021/07/28 11:39:22;;;;;;;8.80;6.37;;;27.30;82.50;;;;;;5099756;28;20539;-63
2021/07/28 11:42:01;;;;;;;5.10;4.70;;;27.30;82.40;;;;;;5112254;28;21080;-62
2021/07/28 11:44:27;;;;;;;6.23;5.60;;;27.30;81.70;;;;;;5101904;28;20507;-63
2021/07/28 11:46:55;;;;;;;6.60;4.20;;;27.30;80.80;;;;;;5098850;28;20500;-63
2021/07/28 11:49:27;;;;;;;4.50;4.10;;;27.30;80.40;;;;;;5103671;28;20666;-62
2021/07/28 11:52:02;;;;;;;4.73;4.30;;;27.20;81.30;;;;;;5105751;28;20535;-63
2021/07/28 11:54:33;;;;;;;4.93;4.53;;;27.30;81.40;;;;;;5103796;28;20472;-62
2021/07/28 11:57:02;;;;;;;4.67;4.27;;;27.30;81.90;;;;;;5103003;27;20672;-62
2021/07/28 11:59:31;;;;;;;5.10;4.70;;;27.20;83.20;;;;;;5104654;28;20480;-63
2021/07/28 12:01:59;;;;;;;4.23;3.90;;;27.30;82.10;;;;;;5110342;28;20472;-62
2021/07/28 12:04:27;;;;;;;4.67;4.37;;;27.30;80.30;;;;;;5110264;28;20847;-62
2021/07/28 12:06:54;;;;;;;5.10;4.70;;;27.30;80.60;;;;;;5102971;28;20533;-62
2021/07/28 12:09:23;;;;;;;4.67;4.27;;;27.30;80.70;;;;;;5103108;28;20534;-63
2021/07/28 12:11:52;;;;;;;4.30;4.00;;;27.30;80.90;;;;;;5103221;28;20472;-62
2021/07/28 12:14:25;;;;;;;3.83;3.63;;;27.30;80.90;;;;;;5116536;27;20460;-64
2021/07/28 12:16:52;;;;;;;4.37;3.97;;;27.30;80.90;;;;;;5104687;28;20998;-64
2021/07/28 12:19:27;;;;;;;3.93;3.63;;;27.20;81.30;;;;;;5102997;27;21016;-62
2021/07/28 12:22:02;;;;;;;3.90;3.60;;;27.20;81.40;;;;;;5106587;28;20863;-63
2021/07/28 12:24:33;;;;;;;3.53;3.23;;;27.20;82.60;;;;;;5110343;28;20464;-63
2021/07/28 12:27:39;;;;;;;3.67;3.37;;;27.10;81.50;;;;;;5107483;27;20480;-63
2021/07/28 12:30:21;;;;;;;3.87;3.57;;;27.10;81.60;;;;;;5115582;28;20456;-63
2021/07/28 12:32:49;;;;;;;4.30;3.90;;;27.10;81.70;;;;;;5116517;28;20535;-62
2021/07/28 12:35:32;;;;;;;4.83;3.93;;;27.10;80.90;;;;;;5116304;28;20460;-63
2021/07/28 12:38:13;;;;;;;3.40;3.10;;;27.00;80.10;;;;;;5116217;27;20472;-63
2021/07/28 12:40:42;;;;;;;5.43;4.07;;;27.00;80.40;;;;;;5116747;28;20468;-63
2021/07/28 12:43:10;;;;;;;3.87;3.57;;;27.00;80.90;;;;;;5116111;27;20521;-63
2021/07/28 12:45:39;;;;;;;7.03;4.50;;;27.00;81.40;;;;;;5116354;27;20456;-63
2021/07/28 12:48:06;;;;;;;4.47;4.17;;;27.00;81.50;;;;;;5115940;28;20480;-63
2021/07/28 12:50:34;;;;;;;4.67;4.27;;;27.00;81.30;;;;;;5116454;28;20460;-62
2021/07/28 12:53:04;;;;;;;4.43;4.13;;;27.00;81.30;;;;;;5116019;27;20468;-62
2021/07/28 12:55:31;;;;;;;4.27;3.40;;;27.00;81.00;;;;;;5116468;28;20957;-63
2021/07/28 12:57:57;;;;;;;3.70;3.40;;;27.00;81.30;;;;;;5116035;28;20475;-62
2021/07/28 13:00:24;;;;;;;3.93;3.63;;;27.00;82.00;;;;;;5116400;27;20516;-62
2021/07/28 13:02:53;;;;;;;4.13;3.83;;;27.00;82.30;;;;;;5116083;28;20467;-62
2021/07/28 13:05:21;;;;;;;8.23;7.27;;;27.00;82.50;;;;;;5116127;28;20464;-62
2021/07/28 13:08:00;;;;;;;4.43;4.10;;;26.90;82.40;;;;;;5115404;28;20539;-62
2021/07/28 13:10:27;;;;;;;4.40;4.00;;;27.00;82.50;;;;;;5116032;28;21045;-62
2021/07/28 13:12:54;;;;;;;4.00;3.50;;;27.00;82.90;;;;;;5116184;27;20517;-62